createdAt,value
2019-02-06T00:02:12.448Z,16.33
2019-02-06T00:08:02.997Z,17.47
2019-02-06T00:10:45.444Z,18.27
2019-02-06T00:16:59.960Z,17.23
2019-02-06T00:19:38.257Z,17.23
2019-02-06T00:22:15.445Z,16.57
2019-02-06T00:24:56.348Z,16.97
2019-02-06T00:27:36.974Z,16.23
2019-02-06T00:30:16.083Z,18.33
2019-02-06T00:32:56.022Z,18.47
2019-02-06T00:35:34.142Z,16.63
2019-02-06T00:38:09.552Z,17.37
2019-02-06T00:40:52.457Z,17.63
2019-02-06T00:43:32.065Z,18.57
2019-02-06T00:52:08.699Z,18.40
2019-02-06T00:54:48.327Z,18.07
2019-02-06T00:57:26.301Z,18.73
2019-02-06T01:00:05.277Z,17.80
2019-02-06T01:06:13.786Z,18.13
2019-02-06T01:09:16.063Z,18.03
2019-02-06T01:11:57.130Z,17.60
2019-02-06T01:15:19.697Z,19.50
2019-02-06T01:22:11.953Z,17.73
2019-02-06T01:25:16.763Z,19.57
2019-02-06T01:27:57.425Z,18.80
2019-02-06T01:35:55.081Z,19.67
2019-02-06T01:43:23.745Z,20.77
2019-02-06T01:48:03.634Z,19.57
2019-02-06T01:51:12.807Z,20.07
2019-02-06T01:54:51.336Z,19.87
2019-02-06T01:56:58.118Z,19.20
2019-02-06T01:59:46.136Z,19.83
2019-02-06T02:02:29.484Z,19.80
2019-02-06T02:05:15.830Z,20.63
2019-02-06T02:08:01.101Z,19.57
2019-02-06T02:10:41.023Z,20.50
2019-02-06T02:13:27.385Z,20.23
2019-02-06T02:16:30.435Z,19.07
2019-02-06T02:25:28.230Z,19.63
2019-02-06T02:32:15.541Z,17.40
2019-02-06T02:35:01.108Z,18.50
2019-02-06T02:37:41.710Z,19.27
2019-02-06T02:43:33.525Z,18.77
2019-02-06T02:46:12.259Z,20.50
2019-02-06T02:48:53.380Z,19.40
2019-02-06T02:51:52.745Z,19.63
2019-02-06T02:54:36.558Z,18.90
2019-02-06T02:57:15.419Z,19.40
2019-02-06T03:00:11.448Z,18.50
2019-02-06T03:03:02.574Z,19.93
2019-02-06T03:05:39.723Z,19.57
2019-02-06T03:08:21.013Z,19.47
2019-02-06T03:10:57.568Z,19.20
2019-02-06T03:13:32.997Z,17.93
2019-02-06T03:16:08.257Z,18.87
2019-02-06T03:18:56.191Z,18.23
2019-02-06T03:21:50.953Z,18.17
2019-02-06T03:24:47.119Z,18.60
2019-02-06T03:27:39.206Z,17.83
2019-02-06T03:30:17.254Z,17.23
2019-02-06T03:33:16.655Z,16.60
2019-02-06T03:35:49.299Z,19.00
2019-02-06T03:38:36.392Z,19.23
2019-02-06T03:45:12.908Z,17.80
2019-02-06T03:47:55.748Z,16.70
2019-02-06T03:52:43.776Z,17.80
2019-02-06T03:58:04.485Z,17.10
2019-02-06T04:00:38.387Z,17.93
2019-02-06T04:07:15.422Z,17.83
2019-02-06T04:09:58.578Z,17.87
2019-02-06T04:12:36.762Z,16.17
2019-02-06T04:16:12.577Z,16.20
2019-02-06T04:21:17.243Z,17.00
2019-02-06T04:29:01.267Z,15.97
2019-02-06T04:30:50.213Z,16.20
2019-02-06T04:33:37.320Z,16.80
2019-02-06T04:37:11.063Z,15.77
2019-02-06T04:40:08.522Z,15.60
2019-02-06T04:42:52.177Z,15.77
2019-02-06T04:45:48.162Z,16.80
2019-02-06T04:51:53.001Z,22.63
2019-02-06T04:54:29.920Z,18.53
2019-02-06T04:57:14.222Z,17.60
2019-02-06T05:00:18.036Z,18.20
2019-02-06T05:03:01.153Z,21.73
2019-02-06T05:05:45.290Z,19.87
2019-02-06T05:08:27.406Z,18.33
2019-02-06T05:11:22.772Z,16.33
2019-02-06T05:17:33.702Z,16.20
2019-02-06T05:20:39.691Z,16.80
2019-02-06T05:23:51.372Z,16.53
2019-02-06T05:26:52.996Z,16.77
2019-02-06T05:29:42.041Z,16.60
2019-02-06T05:32:35.075Z,16.40
2019-02-06T05:35:16.014Z,15.73
2019-02-06T05:38:00.149Z,16.27
2019-02-06T05:40:43.484Z,17.60
2019-02-06T05:43:33.759Z,16.67
2019-02-06T05:46:16.295Z,17.43
2019-02-06T05:49:04.991Z,15.97
2019-02-06T05:51:56.064Z,16.80
2019-02-06T05:54:38.998Z,15.93
2019-02-06T05:57:34.050Z,17.07
2019-02-06T06:00:26.406Z,15.60
2019-02-06T06:03:16.742Z,16.87
2019-02-06T06:06:00.763Z,16.13
2019-02-06T06:08:49.174Z,15.77
2019-02-06T06:11:29.026Z,15.50
2019-02-06T06:14:19.301Z,15.13
2019-02-06T06:17:02.684Z,14.73
2019-02-06T06:19:54.918Z,16.40
2019-02-06T06:22:41.959Z,16.60
2019-02-06T06:25:21.903Z,16.23
2019-02-06T06:28:00.055Z,15.47
2019-02-06T06:30:38.608Z,16.90
2019-02-06T06:33:23.638Z,16.10
2019-02-06T06:36:05.943Z,16.87
2019-02-06T06:40:05.970Z,16.00
2019-02-06T06:41:56.327Z,14.87
2019-02-06T06:48:12.467Z,15.47
2019-02-06T06:51:09.056Z,15.17
2019-02-06T06:54:03.931Z,16.70
2019-02-06T06:56:52.101Z,17.47
2019-02-06T06:59:50.469Z,17.27
2019-02-06T07:02:26.219Z,17.30
2019-02-06T07:05:13.121Z,15.57
2019-02-06T07:07:49.698Z,16.33
2019-02-06T07:10:28.127Z,15.80
2019-02-06T07:13:03.466Z,16.67
2019-02-06T07:15:38.733Z,15.57
2019-02-06T07:18:14.167Z,15.67
2019-02-06T07:20:49.930Z,16.03
2019-02-06T07:23:25.307Z,16.50
2019-02-06T07:26:00.754Z,17.33
2019-02-06T07:28:36.220Z,16.93
2019-02-06T07:31:12.073Z,15.87
2019-02-06T07:33:49.182Z,16.73
2019-02-06T07:36:24.618Z,17.60
2019-02-06T07:39:00.056Z,16.73
2019-02-06T07:41:35.385Z,16.67
2019-02-06T07:44:13.346Z,18.47
2019-02-06T07:46:47.666Z,16.93
2019-02-06T07:49:22.996Z,16.83
2019-02-06T07:52:00.506Z,16.80
2019-02-06T07:54:35.831Z,17.17
2019-02-06T07:57:11.315Z,16.53
2019-02-06T07:59:46.630Z,17.03
2019-02-06T08:02:24.844Z,17.03
2019-02-06T08:05:02.234Z,17.37
2019-02-06T08:07:37.486Z,15.83
2019-02-06T08:10:16.089Z,17.23
2019-02-06T08:12:51.535Z,19.93
2019-02-06T08:15:26.956Z,18.13
2019-02-06T08:18:02.372Z,16.40
2019-02-06T08:20:38.761Z,17.30
2019-02-06T08:23:17.961Z,16.90
2019-02-06T08:25:54.943Z,16.30
2019-02-06T08:28:30.222Z,15.43
2019-02-06T08:31:06.911Z,16.33
2019-02-06T08:33:42.227Z,15.93
2019-02-06T08:36:17.568Z,17.60
2019-02-06T08:38:55.556Z,16.43
2019-02-06T08:41:34.481Z,15.77
2019-02-06T08:44:09.945Z,15.60
2019-02-06T08:46:47.576Z,15.43
2019-02-06T08:49:23.300Z,15.13
2019-02-06T08:51:59.649Z,16.30
2019-02-06T08:54:35.061Z,16.23
2019-02-06T08:57:10.414Z,15.53
2019-02-06T08:59:47.392Z,16.57
2019-02-06T09:02:22.756Z,17.63
2019-02-06T09:04:58.137Z,16.67
2019-02-06T09:07:33.597Z,17.67
2019-02-06T09:10:13.783Z,16.37
2019-02-06T09:12:49.708Z,16.90
2019-02-06T09:15:35.257Z,16.33
2019-02-06T09:18:14.077Z,15.50
2019-02-06T09:21:00.403Z,16.57
2019-02-06T09:23:38.542Z,16.67
2019-02-06T09:26:16.037Z,17.10
2019-02-06T09:28:54.408Z,17.03
2019-02-06T09:31:32.438Z,16.10
2019-02-06T09:34:09.882Z,16.00
2019-02-06T09:36:47.793Z,16.13
2019-02-06T09:39:26.092Z,16.03
2019-02-06T09:42:04.318Z,15.07
2019-02-06T09:44:39.924Z,15.40
2019-02-06T09:47:16.630Z,15.70
2019-02-06T09:49:53.741Z,15.80
2019-02-06T09:52:31.277Z,15.90
2019-02-06T09:55:18.783Z,15.17
2019-02-06T09:57:56.765Z,16.03
2019-02-06T10:00:39.731Z,16.20
2019-02-06T10:03:19.509Z,17.40
2019-02-06T10:06:08.670Z,16.70
2019-02-06T10:08:43.969Z,17.93
2019-02-06T10:12:46.003Z,16.63
2019-02-06T11:14:16.867Z,16.60
2019-02-06T12:00:52.502Z,15.07
2019-02-06T12:07:21.007Z,15.70
2019-02-06T12:10:09.729Z,15.53
2019-02-06T12:13:37.488Z,16.00
2019-02-06T12:16:18.384Z,15.47
2019-02-06T12:19:27.569Z,16.70
2019-02-06T12:22:14.316Z,15.50
2019-02-06T12:24:52.708Z,15.80
2019-02-06T12:27:55.180Z,16.20
2019-02-06T12:30:44.135Z,15.47
2019-02-06T12:33:43.353Z,14.93
2019-02-06T12:36:26.251Z,15.70
2019-02-06T12:39:27.719Z,15.77
2019-02-06T12:42:28.835Z,15.33
2019-02-06T12:45:26.920Z,16.30
2019-02-06T12:48:26.218Z,16.50
2019-02-06T12:54:38.587Z,15.97
2019-02-06T12:58:45.760Z,16.70
2019-02-06T13:02:15.895Z,15.67
2019-02-06T13:05:39.615Z,16.63
2019-02-06T13:09:11.825Z,16.00
2019-02-06T13:11:51.742Z,16.23
2019-02-06T13:14:36.236Z,15.63
2019-02-06T13:17:30.629Z,15.53
2019-02-06T13:20:41.614Z,15.33
2019-02-06T13:23:36.074Z,16.83
2019-02-06T13:26:44.185Z,15.90
2019-02-06T13:33:48.167Z,16.93
2019-02-06T13:36:56.476Z,17.00
2019-02-06T13:39:42.595Z,16.53
2019-02-06T13:42:34.219Z,16.13
2019-02-06T13:45:49.871Z,16.67
2019-02-06T13:48:39.332Z,16.47
2019-02-06T13:51:29.169Z,17.00
2019-02-06T13:54:42.515Z,17.50
2019-02-06T13:57:33.861Z,16.60
2019-02-06T14:00:38.636Z,16.63
2019-02-06T14:03:31.517Z,16.90
2019-02-06T14:06:32.805Z,16.83
2019-02-06T14:09:28.539Z,17.03
2019-02-06T14:12:24.366Z,16.90
2019-02-06T14:15:40.205Z,17.33
2019-02-06T14:22:10.362Z,16.57
2019-02-06T14:25:15.031Z,17.73
2019-02-06T14:28:44.519Z,16.73
2019-02-06T14:32:08.105Z,15.67
2019-02-06T14:35:30.291Z,17.27
2019-02-06T14:38:45.003Z,17.20
2019-02-06T14:42:33.331Z,18.17
2019-02-06T14:45:55.958Z,17.30
2019-02-06T14:49:36.619Z,18.27
2019-02-06T14:53:03.649Z,16.50
2019-02-06T14:56:04.964Z,17.70
2019-02-06T14:59:20.781Z,17.67
2019-02-06T15:02:44.828Z,17.70
2019-02-06T15:06:25.688Z,17.57
2019-02-06T15:09:34.633Z,18.63
2019-02-06T15:12:47.723Z,16.73
2019-02-06T15:16:15.903Z,18.17
2019-02-06T15:19:23.681Z,18.43
2019-02-06T15:22:48.934Z,17.20
2019-02-06T15:29:45.761Z,18.63
2019-02-06T15:33:07.378Z,17.83
2019-02-06T15:36:25.017Z,18.60
2019-02-06T15:39:26.267Z,17.10
2019-02-06T15:42:57.720Z,17.80
2019-02-06T15:46:24.789Z,18.30
2019-02-06T15:49:52.503Z,16.57
2019-02-06T15:53:06.113Z,17.47
2019-02-06T15:56:17.499Z,17.80
2019-02-06T16:03:28.507Z,18.10
2019-02-06T16:06:45.975Z,17.50
2019-02-06T16:09:59.954Z,16.90
2019-02-06T16:13:16.800Z,17.23
2019-02-06T16:16:33.957Z,21.93
2019-02-06T16:20:13.878Z,17.57
2019-02-06T16:23:49.347Z,16.50
2019-02-06T17:08:53.666Z,18.53
2019-02-06T17:16:30.951Z,17.63
2019-02-06T17:40:13.895Z,18.10
2019-02-06T17:43:33.393Z,20.23
2019-02-06T17:46:37.343Z,19.63
2019-02-06T17:49:54.399Z,19.93
2019-02-06T17:53:00.733Z,19.47
2019-02-06T17:55:35.974Z,19.23
2019-02-06T17:58:12.282Z,19.63
2019-02-06T18:19:40.167Z,19.13
2019-02-06T19:03:17.764Z,20.83
2019-02-06T19:06:02.153Z,19.30
2019-02-06T20:34:56.670Z,20.07
2019-02-06T22:55:31.248Z,19.37
2019-02-06T23:14:25.152Z,19.70
2019-02-06T23:16:12.148Z,21.20
2019-02-06T23:19:05.146Z,19.43
2019-02-06T23:21:56.420Z,19.00
2019-02-06T23:29:11.318Z,18.80
2019-02-06T23:31:43.713Z,18.30
2019-02-06T23:35:06.766Z,17.93
2019-02-06T23:38:06.913Z,19.80
2019-02-06T23:41:14.270Z,19.50
2019-02-06T23:44:35.950Z,19.23
2019-02-06T23:47:28.939Z,18.10
2019-02-06T23:50:17.045Z,17.83
2019-02-06T23:53:04.905Z,18.33
2019-02-06T23:56:16.723Z,18.60
2019-02-06T23:59:08.073Z,17.30
